Time;durP1;ratioP1;P1;durP2;ratioP2;P2;SDS_P1;SDS_P2;PMS_P1;PMS_P2;Temp;Humidity;BMP_temperature;BMP_pressure;BME280_temperature;BME280_humidity;BME280_pressure;Samples;Min_cycle;Max_cycle;Signal;HPM_P1;HPM_P2
2022/04/29 00:01:16;;;;;;;12.40;11.27;;;;;;;7.56;76.30;101317.44;10545010;28;20043;-71
2022/04/29 00:06:19;;;;;;;11.32;10.32;;;;;;;7.50;76.99;101316.59;10544648;28;20042;-71
2022/04/29 00:11:21;;;;;;;12.77;11.82;;;;;;;7.64;76.79;101309.59;10543441;28;20051;-71
2022/04/29 00:16:22;;;;;;;12.63;11.77;;;;;;;7.86;76.15;101314.84;10543831;28;20048;-70
2022/04/29 00:21:24;;;;;;;12.82;11.88;;;;;;;7.61;76.10;101306.09;10543088;28;20457;-70
2022/04/29 00:26:26;;;;;;;12.82;11.73;;;;;;;7.64;75.66;101306.13;10542599;28;20543;-71
2022/04/29 00:31:28;;;;;;;12.50;11.38;;;;;;;7.23;77.39;101306.94;10542362;28;20044;-70
2022/04/29 00:36:30;;;;;;;14.13;12.88;;;;;;;7.42;77.31;101307.84;10542262;28;20070;-70
2022/04/29 00:41:32;;;;;;;13.82;12.80;;;;;;;7.32;76.71;101304.34;10523776;28;20083;-70
2022/04/29 00:46:41;;;;;;;12.02;10.98;;;;;;;6.95;78.23;101301.66;10523932;28;20107;-70
2022/04/29 00:51:46;;;;;;;13.35;12.20;;;;;;;7.10;78.82;101297.31;10523510;28;20412;-70
2022/04/29 00:56:51;;;;;;;13.95;12.57;;;;;;;7.16;78.04;101300.81;10524196;28;20052;-71
2022/04/29 01:01:55;;;;;;;13.10;12.00;;;;;;;6.96;78.66;101295.53;10542662;28;20036;-70
2022/04/29 01:06:57;;;;;;;12.82;11.93;;;;;;;6.94;78.64;101284.19;10543885;28;20511;-70
2022/04/29 01:11:58;;;;;;;13.25;12.15;;;;;;;6.70;79.72;101287.59;10542021;28;20044;-71
2022/04/29 01:17:00;;;;;;;14.85;13.48;;;;;;;6.62;80.56;101294.53;10523456;28;20131;-70
2022/04/29 01:22:02;;;;;;;13.55;12.55;;;;;;;6.68;80.00;101281.47;10523188;28;20047;-71
2022/04/29 01:27:11;;;;;;;14.35;13.15;;;;;;;6.85;79.05;101276.31;10541344;28;20048;-70
2022/04/29 01:32:14;;;;;;;13.00;11.90;;;;;;;6.60;80.16;101274.47;10522426;28;20040;-70
2022/04/29 01:37:18;;;;;;;15.18;13.45;;;;;;;6.63;79.85;101279.72;10522759;28;20363;-70
2022/04/29 01:42:20;;;;;;;14.80;13.02;;;;;;;6.38;80.42;101279.63;10522321;28;20050;-70
2022/04/29 01:47:27;;;;;;;14.82;13.18;;;;;;;6.59;80.68;101276.22;10522443;28;20135;-70
2022/04/29 01:52:37;;;;;;;15.20;14.00;;;;;;;6.51;79.81;101275.34;10522886;28;20047;-70
2022/04/29 01:57:38;;;;;;;14.43;13.27;;;;;;;6.13;81.70;101276.00;10536286;22;20055;-75
2022/04/29 02:02:41;;;;;;;15.57;14.27;;;;;;;6.11;82.70;101269.91;10543018;28;20082;-75
2022/04/29 02:07:44;;;;;;;14.57;13.15;;;;;;;6.11;81.66;101266.38;10530493;28;20070;-74
2022/04/29 02:12:48;;;;;;;12.43;11.52;;;;;;;6.11;81.60;101269.00;10530699;28;20047;-75
2022/04/29 02:17:55;;;;;;;14.35;13.25;;;;;;;6.20;81.27;101266.47;10549684;28;20086;-75
2022/04/29 02:22:59;;;;;;;14.95;13.77;;;;;;;6.36;81.30;101270.88;10529640;28;20044;-75
2022/04/29 02:28:00;;;;;;;15.07;13.77;;;;;;;6.46;80.04;101274.41;10530231;28;20043;-74
2022/04/29 02:33:02;;;;;;;16.27;14.60;;;;;;;5.80;82.29;101264.44;10529731;28;20135;-75
2022/04/29 02:38:04;;;;;;;16.88;15.35;;;;;;;6.15;82.44;101263.81;10530771;28;20071;-74
2022/04/29 02:43:06;;;;;;;22.25;15.32;;;;;;;5.97;82.83;101259.34;10528810;28;20044;-74
2022/04/29 02:48:08;;;;;;;16.33;15.13;;;;;;;5.98;83.88;101263.72;10529011;28;20097;-73
2022/04/29 02:53:10;;;;;;;16.92;15.52;;;;;;;5.86;84.65;101260.13;10547362;28;20036;-74
2022/04/29 02:58:12;;;;;;;17.98;16.58;;;;;;;5.50;85.80;101256.38;10528481;28;20497;-74
2022/04/29 03:03:14;;;;;;;18.60;16.80;;;;;;;5.43;86.84;101257.16;10528875;28;20040;-74
2022/04/29 03:08:16;;;;;;;17.05;15.48;;;;;;;5.51;86.66;101255.50;10528710;28;20105;-74
2022/04/29 03:13:17;;;;;;;17.42;16.00;;;;;;;5.82;84.49;101267.03;10528607;28;20044;-74
2022/04/29 03:18:29;;;;;;;18.15;16.52;;;;;;;5.66;85.21;101257.34;10528729;28;20052;-74
2022/04/29 03:23:32;;;;;;;19.30;17.48;;;;;;;5.47;87.43;101259.81;10527486;28;20101;-74
2022/04/29 03:28:33;;;;;;;18.15;16.67;;;;;;;5.34;87.11;101259.69;10546499;28;20109;-75
2022/04/29 03:33:35;;;;;;;18.00;16.45;;;;;;;5.46;86.38;101263.28;10527590;28;20474;-74
2022/04/29 03:38:37;;;;;;;16.73;15.48;;;;;;;5.34;87.23;101259.69;10528636;28;20052;-73
2022/04/29 03:43:40;;;;;;;17.02;15.52;;;;;;;5.20;87.48;101262.16;10527548;28;20082;-74
2022/04/29 03:54:16;;;;;;;17.80;16.30;;;;;;;5.27;86.77;101271.81;10526678;28;20090;-74
2022/04/29 03:59:25;;;;;;;17.05;15.75;;;;;;;5.29;86.07;101263.13;10526380;28;20469;-74
2022/04/29 04:04:27;;;;;;;18.80;16.70;;;;;;;5.46;85.20;101270.22;10526247;28;20063;-74
2022/04/29 04:09:31;;;;;;;18.30;16.27;;;;;;;5.32;85.91;101270.97;10526112;28;20425;-74
2022/04/29 04:14:38;;;;;;;21.13;17.48;;;;;;;5.33;87.01;101269.25;10525549;28;20094;-74
2022/04/29 04:19:40;;;;;;;18.52;16.42;;;;;;;5.57;85.18;101272.06;10509121;28;20067;-74
2022/04/29 04:24:43;;;;;;;17.38;16.08;;;;;;;5.33;86.99;101277.06;10525453;28;20036;-74
2022/04/29 04:29:44;;;;;;;17.58;16.17;;;;;;;5.56;86.10;101272.91;10525562;28;20047;-73
2022/04/29 04:34:55;;;;;;;18.52;17.13;;;;;;;5.61;86.82;101279.91;10525551;28;20062;-73
2022/04/29 04:39:58;;;;;;;17.35;15.68;;;;;;;5.64;87.30;101290.38;10525207;28;20105;-72
2022/04/29 04:45:07;;;;;;;19.10;17.60;;;;;;;5.76;87.25;101290.50;10524894;28;20054;-73
2022/04/29 04:50:16;;;;;;;19.33;17.63;;;;;;;5.92;87.18;101297.59;10525302;28;20493;-74
2022/04/29 04:55:18;;;;;;;20.25;18.60;;;;;;;6.03;86.44;101303.78;10542779;28;20048;-74
2022/04/29 05:00:21;;;;;;;18.38;16.58;;;;;;;6.28;85.86;101302.19;10507565;28;20044;-73
2022/04/29 05:05:55;;;;;;;23.92;17.58;;;;;;;6.51;84.18;101302.31;10524897;28;20055;-74
2022/04/29 05:10:58;;;;;;;19.08;17.38;;;;;;;6.82;81.13;101305.94;10525618;28;20068;-74
2022/04/29 05:16:01;;;;;;;17.75;16.25;;;;;;;7.14;77.72;101296.47;10525140;28;20044;-73
2022/04/29 05:21:16;;;;;;;16.05;14.85;;;;;;;7.22;77.79;101306.06;10525355;28;20079;-74
2022/04/29 05:26:18;;;;;;;15.93;14.73;;;;;;;7.42;77.01;101293.00;10525576;28;20052;-73
2022/04/29 05:31:48;;;;;;;16.98;14.77;;;;;;;7.58;76.14;101302.63;10542529;28;20044;-73
2022/04/29 05:37:09;;;;;;;14.68;13.57;;;;;;;7.61;76.39;101301.75;10542343;28;20048;-73
2022/04/29 05:42:25;;;;;;;16.60;14.97;;;;;;;7.78;75.62;101304.38;10525471;28;20132;-73
2022/04/29 05:47:27;;;;;;;16.67;15.30;;;;;;;7.82;75.06;101304.38;10541466;28;20068;-72
2022/04/29 05:52:29;;;;;;;16.15;14.48;;;;;;;7.91;74.84;101305.25;10523995;28;20040;-72
2022/04/29 05:57:31;;;;;;;17.35;15.52;;;;;;;8.30;73.84;101313.06;10522610;28;20048;-72
2022/04/29 06:02:35;;;;;;;14.73;13.55;;;;;;;8.82;71.17;101304.19;10506602;28;20078;-72
2022/04/29 06:07:50;;;;;;;10.15;9.25;;;;;;;9.29;69.67;101303.94;10540858;28;20039;-72
2022/04/29 06:12:57;;;;;;;;;;;;;;;10.15;66.22;101302.41;10522534;28;20068;-73
2022/04/29 06:18:18;;;;;;;14.30;13.02;;;;;;;10.52;63.52;101305.53;10539073;28;19920;-73
2022/04/29 06:23:51;;;;;;;13.88;12.82;;;;;;;10.72;64.27;101306.19;10522900;28;20068;-73
2022/04/29 06:28:55;;;;;;;17.63;13.77;;;;;;;10.96;62.70;101299.72;10506402;28;20068;-73
2022/04/29 06:33:56;;;;;;;14.88;13.20;;;;;;;11.26;61.58;101308.09;10522126;28;20060;-73
2022/04/29 06:38:58;;;;;;;15.63;12.68;;;;;;;11.45;61.21;101303.44;10521971;28;20079;-74
2022/04/29 06:44:22;;;;;;;13.80;12.30;;;;;;;11.32;62.11;101302.72;10539717;28;20127;-73
2022/04/29 06:49:43;;;;;;;15.32;14.02;;;;;;;11.34;62.42;101307.09;10545545;28;20060;-73
2022/04/29 06:55:20;;;;;;;14.73;13.65;;;;;;;11.20;61.16;101303.81;10505438;28;20073;-73
2022/04/29 07:00:23;;;;;;;14.80;13.18;;;;;;;11.51;60.30;101309.47;10529678;28;20051;-73
2022/04/29 07:05:28;;;;;;;15.15;12.30;;;;;;;11.25;61.42;101314.25;10529635;28;20093;-73
2022/04/29 07:10:31;;;;;;;14.65;13.10;;;;;;;11.33;60.39;101310.63;10529638;28;20167;-73
2022/04/29 07:16:05;;;;;;;14.40;12.88;;;;;;;11.62;60.48;101318.06;10547077;28;20071;-73
2022/04/29 07:21:40;;;;;;;15.35;12.98;;;;;;;12.33;60.30;101309.88;10502080;28;20048;-73
2022/04/29 07:26:41;;;;;;;12.57;11.70;;;;;;;13.14;57.11;101307.34;10512353;28;20047;-73
2022/04/29 07:31:46;;;;;;;13.50;12.23;;;;;;;13.97;54.65;101308.91;10527823;28;20101;-73
2022/04/29 07:42:13;;;;;;;20.05;12.25;;;;;;;13.90;54.52;101312.63;10531221;28;20147;-74
2022/04/29 07:47:15;;;;;;;13.48;12.35;;;;;;;13.88;54.55;101302.09;10548684;28;20036;-73
2022/04/29 07:52:27;;;;;;;13.75;12.52;;;;;;;13.96;54.68;101301.03;10524130;28;20036;-73
2022/04/29 07:57:29;;;;;;;12.48;11.52;;;;;;;13.73;54.55;101299.84;10543204;22;20051;-72
2022/04/29 08:02:32;;;;;;;12.82;11.25;;;;;;;14.17;54.20;101291.69;10505420;28;20485;-71
2022/04/29 08:07:34;;;;;;;16.38;12.35;;;;;;;13.62;54.87;101292.16;10515737;28;20047;-72
2022/04/29 08:12:37;;;;;;;14.68;11.27;;;;;;;13.74;54.55;101298.94;10485218;28;20102;-72
2022/04/29 08:18:12;;;;;;;16.45;12.02;;;;;;;14.16;54.00;101290.78;10517587;28;20083;-71
2022/04/29 08:23:15;;;;;;;13.82;10.95;;;;;;;14.42;54.49;101284.78;10509353;28;20139;-72
2022/04/29 08:28:16;;;;;;;12.63;11.40;;;;;;;14.56;54.59;101279.16;10526325;28;20048;-72
2022/04/29 08:33:18;;;;;;;12.38;10.30;;;;;;;14.72;52.73;101284.88;10543070;28;20074;-72
2022/04/29 08:38:30;;;;;;;12.07;10.85;;;;;;;14.95;51.64;101284.19;10525518;28;20470;-72
2022/04/29 08:43:38;;;;;;;12.55;10.20;;;;;;;15.77;49.44;101286.06;10543757;28;20400;-72
2022/04/29 08:48:45;;;;;;;8.88;6.47;;;;;;;16.64;45.06;101262.63;10525255;28;20050;-71
2022/04/29 08:53:47;;;;;;;7.80;4.95;;;;;;;16.86;42.93;101267.13;10524792;28;20036;-72
2022/04/29 08:58:49;;;;;;;8.98;5.78;;;;;;;17.35;42.63;101260.78;10524783;28;20048;-71
2022/04/29 09:03:52;;;;;;;10.10;5.28;;;;;;;17.37;41.55;101260.72;10542785;28;20044;-71
2022/04/29 09:09:07;;;;;;;4.90;4.38;;;;;;;17.17;41.24;101257.97;10518610;28;20537;-71
2022/04/29 09:14:23;;;;;;;7.05;5.50;;;;;;;17.03;40.77;101255.84;10511438;28;20478;-72
2022/04/29 09:19:35;;;;;;;7.03;4.63;;;;;;;17.37;39.19;101253.59;10543533;28;20127;-72
2022/04/29 09:24:36;;;;;;;14.35;4.68;;;;;;;17.17;39.99;101255.31;10543052;28;20278;-72
2022/04/29 09:30:12;;;;;;;6.03;4.35;;;;;;;17.43;40.35;101248.94;10525858;28;20056;-72
2022/04/29 09:35:51;;;;;;;5.25;2.75;;;;;;;17.82;38.50;101239.34;10541862;28;20036;-72
2022/04/29 09:40:54;;;;;;;6.63;3.83;;;;;;;18.18;37.31;101236.00;10541035;28;20061;-71
2022/04/29 09:46:18;;;;;;;6.15;3.42;;;;;;;18.14;37.53;101235.28;10525387;28;20051;-71
2022/04/29 09:51:41;;;;;;;4.70;2.83;;;;;;;18.68;36.83;101227.53;10542253;28;20459;-74
2022/04/29 09:56:45;;;;;;;4.63;3.10;;;;;;;18.89;34.18;101223.88;10542395;28;20043;-76
2022/04/29 10:01:47;;;;;;;4.60;3.17;;;;;;;19.00;35.68;101222.53;10523741;28;20050;-74
2022/04/29 10:06:49;;;;;;;3.90;3.22;;;;;;;18.56;35.43;101209.47;10524433;28;20120;-75
2022/04/29 10:11:52;;;;;;;9.13;4.00;;;;;;;17.37;38.72;101227.00;10542575;28;20190;-75
2022/04/29 10:22:40;;;;;;;3.75;2.88;;;;;;;18.24;36.64;101209.16;10543129;28;20044;-74
2022/04/29 10:27:42;;;;;;;5.38;3.05;;;;;;;18.95;35.90;101198.78;10550224;28;20056;-75
2022/04/29 10:33:01;;;;;;;4.85;2.75;;;;;;;18.36;34.84;101194.41;10531309;28;20048;-73
2022/04/29 10:38:12;;;;;;;4.05;2.70;;;;;;;18.00;35.09;101183.63;10549666;28;20032;-74
2022/04/29 10:43:18;;;;;;;4.53;2.67;;;;;;;17.97;33.68;101176.63;10549141;28;20040;-74
2022/04/29 10:48:36;;;;;;;4.33;3.63;;;;;;;18.38;35.57;101169.44;10549105;28;20051;-75
2022/04/29 10:53:58;;;;;;;4.28;3.13;;;;;;;18.84;33.85;101177.97;10549616;28;20048;-75
2022/04/29 10:59:26;;;;;;;5.75;3.55;;;;;;;18.47;35.35;101169.97;10531095;28;20497;-74
2022/04/29 11:04:31;;;;;;;3.85;2.80;;;;;;;18.15;34.80;101161.66;10548255;28;20040;-76
2022/04/29 11:09:44;;;;;;;4.78;2.92;;;;;;;18.29;34.68;101155.72;10548954;28;20056;-75
2022/04/29 11:15:07;;;;;;;4.47;2.35;;;;;;;18.76;34.65;101156.16;10512961;28;20486;-75
2022/04/29 11:20:31;;;;;;;4.40;2.90;;;;;;;18.37;32.60;101150.88;10549251;28;20040;-75
2022/04/29 11:25:32;;;;;;;3.30;2.20;;;;;;;18.10;32.70;101153.84;10547640;28;20065;-75
2022/04/29 11:31:03;;;;;;;3.85;2.50;;;;;;;18.45;33.05;101143.38;10530718;28;20056;-75
2022/04/29 11:36:12;;;;;;;5.13;2.72;;;;;;;18.23;32.31;101140.00;10547089;28;20047;-75
2022/04/29 11:41:15;;;;;;;3.30;3.00;;;;;;;19.02;32.26;101140.69;10547709;28;20040;-76
2022/04/29 11:46:18;;;;;;;4.85;2.58;;;;;;;19.16;33.50;101135.53;10529995;28;20048;-76
2022/04/29 11:51:21;;;;;;;4.50;3.03;;;;;;;18.61;33.62;101127.56;10529156;28;20048;-75
2022/04/29 11:56:32;;;;;;;6.05;3.03;;;;;;;18.59;31.91;101117.00;10528468;28;20047;-76
2022/04/29 12:01:34;;;;;;;3.92;2.13;;;;;;;19.22;31.09;101113.94;10546691;28;20048;-76
2022/04/29 12:06:54;;;;;;;4.55;2.58;;;;;;;19.56;31.36;101099.72;10528548;28;20511;-75
2022/04/29 12:11:56;;;;;;;4.32;2.90;;;;;;;19.12;31.86;101091.31;10527759;28;20459;-74
2022/04/29 12:16:57;;;;;;;4.63;2.38;;;;;;;19.58;31.47;101084.50;10527464;28;20079;-75
2022/04/29 12:22:00;;;;;;;3.33;2.38;;;;;;;19.77;29.85;101083.56;10546799;28;20113;-76
2022/04/29 12:27:04;;;;;;;5.28;2.70;;;;;;;19.79;31.75;101084.31;10545859;28;20497;-76
2022/04/29 12:37:31;;;;;;;5.90;3.08;;;;;;;18.96;33.12;101072.59;10545909;28;20059;-77
2022/04/29 12:42:33;;;;;;;3.38;2.83;;;;;;;19.64;30.27;101062.88;10545313;28;20043;-76
2022/04/29 12:47:49;;;;;;;3.58;2.55;;;;;;;19.85;32.18;101055.53;10526253;28;20506;-75
2022/04/29 12:52:54;;;;;;;5.28;3.10;;;;;;;20.00;31.07;101055.63;10525815;28;20043;-73
2022/04/29 12:58:15;;;;;;;4.03;3.58;;;;;;;20.11;29.75;101046.09;10544470;28;20123;-73
2022/04/29 13:03:19;;;;;;;3.72;2.80;;;;;;;20.04;30.38;101035.84;10543643;28;20404;-74
2022/04/29 13:08:26;;;;;;;4.85;2.80;;;;;;;19.53;32.50;101025.22;10525426;28;20044;-73
2022/04/29 13:13:29;;;;;;;4.00;3.38;;;;;;;19.05;30.92;101015.31;10544594;28;20040;-74
2022/04/29 13:18:31;;;;;;;4.30;2.67;;;;;;;18.66;32.69;101011.88;10526291;28;20044;-74
2022/04/29 13:23:37;;;;;;;4.10;3.20;;;;;;;18.86;30.95;101002.94;10545428;28;20105;-76
2022/04/29 13:28:43;;;;;;;3.90;2.85;;;;;;;18.69;31.26;100997.59;10545215;28;20122;-76
2022/04/29 13:33:45;;;;;;;3.33;2.88;;;;;;;19.32;30.87;100986.34;10526003;28;20497;-76
2022/04/29 13:38:48;;;;;;;4.25;2.45;;;;;;;18.97;32.17;100983.72;10543197;28;20062;-75
2022/04/29 13:43:52;;;;;;;3.88;3.05;;;;;;;19.09;30.89;100972.44;10524660;28;20074;-72
2022/04/29 13:49:10;;;;;;;3.78;2.50;;;;;;;18.98;31.37;100977.44;10542729;28;20040;-74
2022/04/29 13:54:11;;;;;;;4.28;3.00;;;;;;;18.69;33.21;100976.28;10542644;28;20150;-75
2022/04/29 13:59:13;;;;;;;4.25;2.42;;;;;;;18.14;32.67;100971.84;10553585;22;20048;-72
2022/04/29 14:04:14;;;;;;;7.18;2.95;;;;;;;18.62;31.72;100966.84;10539285;28;20043;-71
2022/04/29 14:09:17;;;;;;;5.43;3.20;;;;;;;18.70;32.05;100961.19;10539442;28;20048;-70
2022/04/29 14:14:19;;;;;;;4.18;3.25;;;;;;;18.58;33.84;100965.28;10520990;28;20048;-70
2022/04/29 14:19:20;;;;;;;5.45;2.40;;;;;;;18.58;31.35;100947.50;10538790;28;20048;-71
2022/04/29 14:24:22;;;;;;;3.70;2.25;;;;;;;18.67;30.96;100946.16;10521083;28;20062;-71
2022/04/29 14:29:24;;;;;;;3.63;2.67;;;;;;;18.42;32.35;100943.91;10520522;28;20526;-71
2022/04/29 14:34:26;;;;;;;3.00;2.35;;;;;;;18.64;31.92;100943.69;10539001;28;20098;-71
2022/04/29 14:39:28;;;;;;;3.78;2.70;;;;;;;18.81;30.09;100942.81;10538695;28;20060;-71
2022/04/29 14:44:30;;;;;;;3.80;2.72;;;;;;;18.50;31.01;100933.69;10538612;28;20036;-71
2022/04/29 14:49:31;;;;;;;3.33;2.85;;;;;;;18.60;31.93;100923.47;10538195;28;20044;-72
2022/04/29 14:54:33;;;;;;;4.38;2.28;;;;;;;18.37;32.75;100916.63;10538712;28;20040;-72
2022/04/29 14:59:35;;;;;;;2.72;1.85;;;;;;;18.71;31.68;100917.63;10519814;28;20051;-72
2022/04/29 15:04:38;;;;;;;4.13;2.80;;;;;;;18.58;32.24;100904.88;10538326;28;20048;-71
2022/04/29 15:20:20;;;;;;;4.32;3.03;;;;;;;18.51;31.97;100895.50;10546926;28;20040;-71
2022/04/29 15:25:23;;;;;;;3.15;2.47;;;;;;;18.45;32.74;100895.81;10546641;28;20042;-71
2022/04/29 15:30:39;;;;;;;3.63;2.95;;;;;;;18.28;32.80;100894.00;10545551;28;20044;-70
2022/04/29 15:35:43;;;;;;;3.17;2.30;;;;;;;18.26;33.47;100885.22;10530292;28;20058;-70
2022/04/29 15:40:46;;;;;;;4.40;2.20;;;;;;;18.27;33.83;100884.28;10528218;28;20043;-71
2022/04/29 15:45:50;;;;;;;3.33;2.83;;;;;;;18.08;32.42;100884.34;10545840;28;20065;-71
2022/04/29 15:50:52;;;;;;;4.68;2.97;;;;;;;18.53;32.88;100864.31;10527308;28;20055;-71
2022/04/29 15:55:56;;;;;;;3.20;2.90;;;;;;;18.89;32.33;100872.22;10544505;28;20489;-72
2022/04/29 16:00:57;;;;;;;4.22;2.72;;;;;;;18.41;32.30;100870.28;10526760;28;20079;-71
2022/04/29 16:05:59;;;;;;;5.45;2.90;;;;;;;18.34;31.54;100859.09;10544265;28;20502;-71
2022/04/29 16:11:01;;;;;;;4.13;2.47;;;;;;;17.91;33.29;100863.03;10543438;28;20048;-72
2022/04/29 16:16:03;;;;;;;3.30;2.40;;;;;;;18.06;33.09;100854.31;10544058;28;20051;-71
2022/04/29 16:21:05;;;;;;;3.95;2.50;;;;;;;17.86;32.91;100854.41;10524152;28;20070;-71
2022/04/29 16:26:08;;;;;;;4.68;2.55;;;;;;;17.74;33.75;100849.69;10543399;28;20374;-71
2022/04/29 16:31:11;;;;;;;4.97;2.50;;;;;;;17.43;33.25;100847.59;10542981;28;20123;-73
2022/04/29 16:36:13;;;;;;;3.38;2.30;;;;;;;17.11;33.85;100848.19;10542016;28;20036;-71
2022/04/29 16:41:14;;;;;;;2.45;2.10;;;;;;;17.04;34.40;100844.06;10525375;28;20051;-71
2022/04/29 16:46:19;;;;;;;2.35;2.15;;;;;;;17.02;35.08;100840.63;10542774;28;20044;-71
2022/04/29 16:51:21;;;;;;;5.80;2.80;;;;;;;16.96;35.30;100840.91;10543256;28;20040;-73
2022/04/29 16:56:23;;;;;;;3.60;2.50;;;;;;;17.14;34.21;100844.53;10543785;28;20109;-72
2022/04/29 17:01:26;;;;;;;2.83;1.80;;;;;;;17.47;33.03;100842.06;10523877;28;20052;-72
2022/04/29 17:06:28;;;;;;;3.72;2.13;;;;;;;17.45;35.27;100843.09;10523953;28;20036;-72
2022/04/29 17:11:29;;;;;;;5.13;3.15;;;;;;;17.43;35.42;100836.97;10539084;28;20043;-72
2022/04/29 17:16:32;;;;;;;3.83;2.92;;;;;;;17.23;35.56;100836.13;10538496;28;20085;-72
2022/04/29 17:21:33;;;;;;;3.03;2.47;;;;;;;17.20;34.73;100835.41;10538089;28;20047;-72
2022/04/29 17:26:37;;;;;;;4.20;2.88;;;;;;;17.21;35.51;100837.13;10539158;28;20044;-72
2022/04/29 17:31:39;;;;;;;3.88;3.47;;;;;;;17.08;34.96;100836.81;10540727;28;20048;-72
2022/04/29 17:36:40;;;;;;;6.10;2.55;;;;;;;16.88;35.38;100837.75;10525609;28;20051;-72
2022/04/29 17:47:16;;;;;;;4.60;2.53;;;;;;;16.77;34.49;100842.66;10412140;28;20053;-72
2022/04/29 17:52:18;;;;;;;4.15;2.20;;;;;;;16.27;34.88;100843.03;10381506;28;20511;-71
2022/04/29 17:57:23;;;;;;;8.27;2.00;;;;;;;16.38;33.83;100852.28;10371445;28;20062;-71
2022/04/29 18:02:25;;;;;;;3.80;2.17;;;;;;;16.19;34.92;100851.31;10371439;28;20062;-72
2022/04/29 18:07:26;;;;;;;3.42;1.90;;;;;;;16.19;33.37;100858.41;10371577;28;20491;-70
2022/04/29 18:12:29;;;;;;;1.60;1.40;;;;;;;15.84;34.40;100858.94;10371752;28;20058;-71
2022/04/29 18:17:32;;;;;;;2.75;1.73;;;;;;;15.71;34.39;100868.28;10371912;28;20444;-71
2022/04/29 18:22:34;;;;;;;2.90;1.98;;;;;;;15.29;35.65;100860.22;10490003;28;20071;-71
2022/04/29 18:27:36;;;;;;;2.50;1.55;;;;;;;15.02;36.13;100865.63;10541607;28;20044;-71
2022/04/29 18:32:38;;;;;;;2.83;1.83;;;;;;;14.87;36.23;100863.53;10541003;28;20123;-71
2022/04/29 18:37:41;;;;;;;2.10;1.67;;;;;;;14.78;38.19;100864.72;10540098;28;20090;-70
2022/04/29 18:42:44;;;;;;;3.67;1.52;;;;;;;14.71;41.80;100865.00;10540607;28;20044;-71
2022/04/29 18:47:46;;;;;;;5.13;1.92;;;;;;;14.75;42.31;100869.28;10547945;28;20112;-71
2022/04/29 18:52:47;;;;;;;5.28;2.15;;;;;;;14.39;42.69;100859.03;10529817;28;20452;-71
2022/04/29 18:57:49;;;;;;;3.80;2.38;;;;;;;14.26;42.05;100865.66;10547909;28;20036;-71
2022/04/29 19:02:51;;;;;;;4.85;3.22;;;;;;;13.93;43.74;100878.19;10529621;28;20466;-72
2022/04/29 19:07:53;;;;;;;5.60;3.72;;;;;;;13.73;45.66;100879.69;10547368;28;20139;-71
2022/04/29 19:12:54;;;;;;;7.45;4.30;;;;;;;13.28;47.06;100882.81;10546772;28;20050;-71
2022/04/29 19:17:56;;;;;;;4.38;3.53;;;;;;;13.27;48.62;100888.13;10547152;28;20048;-71
2022/04/29 19:22:57;;;;;;;5.65;3.75;;;;;;;12.95;49.96;100876.69;10546379;28;20048;-71
2022/04/29 19:27:59;;;;;;;4.90;4.07;;;;;;;12.99;51.00;100878.34;10546449;28;20467;-71
2022/04/29 19:33:03;;;;;;;4.97;4.47;;;;;;;12.91;51.09;100880.31;10545958;28;20119;-71
2022/04/29 19:38:04;;;;;;;5.15;4.60;;;;;;;12.78;51.33;100878.94;10546164;28;20036;-70
2022/04/29 19:43:06;;;;;;;4.43;4.00;;;;;;;12.71;50.97;100874.75;10546563;28;20097;-70
2022/04/29 19:48:09;;;;;;;5.32;4.60;;;;;;;12.45;51.77;100886.84;10546200;28;20056;-71
2022/04/29 19:53:11;;;;;;;4.63;3.90;;;;;;;12.25;52.06;100881.22;10510273;28;20048;-70
2022/04/29 20:03:51;;;;;;;4.97;4.47;;;;;;;12.26;52.02;100872.38;10489110;28;20047;-75
2022/04/29 20:08:57;;;;;;;5.22;4.45;;;;;;;12.06;52.64;100872.91;10491140;28;20048;-74
2022/04/29 20:14:00;;;;;;;5.80;4.25;;;;;;;12.02;52.94;100874.72;10471222;28;20064;-73
2022/04/29 20:19:04;;;;;;;4.80;4.22;;;;;;;11.73;53.28;100878.03;10505504;28;20036;-74
2022/04/29 20:24:06;;;;;;;4.72;4.22;;;;;;;11.48;55.26;100885.63;10504769;28;20086;-74
2022/04/29 20:29:07;;;;;;;5.18;4.78;;;;;;;11.40;55.50;100884.91;10503670;28;20048;-73
2022/04/29 20:34:09;;;;;;;5.30;4.80;;;;;;;11.32;55.98;100885.06;10505272;28;20032;-74
2022/04/29 20:44:31;;;;;;;8.23;4.57;;;;;;;11.39;56.19;100888.44;10503564;28;20486;-74
2022/04/29 20:49:32;;;;;;;5.68;4.80;;;;;;;11.28;57.24;100880.75;10503861;28;20109;-73
2022/04/29 20:54:34;;;;;;;5.90;5.10;;;;;;;11.36;58.29;100888.50;10503101;28;20060;-74
2022/04/29 20:59:37;;;;;;;6.10;5.47;;;;;;;11.34;57.61;100885.06;10502071;28;20547;-73
2022/04/29 21:04:38;;;;;;;6.03;5.43;;;;;;;11.45;57.26;100883.03;10502596;28;20559;-73
2022/04/29 21:09:41;;;;;;;8.45;5.55;;;;;;;11.40;56.08;100881.41;10501643;28;20094;-75
2022/04/29 21:14:43;;;;;;;6.18;5.60;;;;;;;11.00;57.96;100875.22;10501058;28;20044;-74
2022/04/29 21:19:45;;;;;;;7.63;5.55;;;;;;;10.77;58.87;100875.69;10501982;28;20131;-73
2022/04/29 21:24:46;;;;;;;7.00;5.95;;;;;;;10.75;58.97;100880.06;10503171;28;20440;-74
2022/04/29 21:35:08;;;;;;;6.88;6.28;;;;;;;10.56;60.22;100876.06;10501921;28;20482;-73
2022/04/29 21:40:11;;;;;;;8.23;6.15;;;;;;;10.49;60.71;100877.06;10500686;28;20051;-73
2022/04/29 21:45:12;;;;;;;7.45;6.40;;;;;;;10.68;61.13;100877.63;10501257;28;20048;-74
2022/04/29 21:50:14;;;;;;;8.63;6.82;;;;;;;10.67;61.95;100867.97;10499683;28;20072;-74
2022/04/29 21:55:17;;;;;;;6.80;6.20;;;;;;;10.53;61.71;100870.84;10483207;28;20036;-74
2022/04/29 22:00:19;;;;;;;5.85;5.30;;;;;;;10.33;61.80;100864.22;10482599;28;20044;-73
2022/04/29 22:05:22;;;;;;;6.70;6.20;;;;;;;10.24;62.20;100873.97;10499820;28;20485;-74
2022/04/29 22:10:24;;;;;;;7.55;6.65;;;;;;;10.35;63.26;100866.78;10502701;28;20094;-74
2022/04/29 22:15:27;;;;;;;8.73;7.43;;;;;;;10.14;63.67;100856.63;10482229;28;20037;-73
2022/04/29 22:20:29;;;;;;;6.95;6.25;;;;;;;10.10;63.91;100858.47;10506452;28;20109;-73
2022/04/29 22:25:30;;;;;;;8.07;7.38;;;;;;;10.14;64.09;100854.00;10491807;28;20048;-73
2022/04/29 22:30:32;;;;;;;8.77;7.88;;;;;;;10.05;65.41;100853.28;10475334;28;20107;-73
2022/04/29 22:35:34;;;;;;;9.23;8.32;;;;;;;10.06;65.19;100856.78;10490792;28;20048;-72
2022/04/29 22:40:37;;;;;;;8.25;7.47;;;;;;;9.97;65.66;100862.16;10508940;28;20052;-74
2022/04/29 22:45:39;;;;;;;10.50;9.40;;;;;;;9.98;65.33;100856.88;10508785;28;20036;-74
2022/04/29 22:50:40;;;;;;;11.55;9.88;;;;;;;10.00;66.28;100849.84;10491022;28;20440;-74
2022/04/29 22:55:42;;;;;;;9.50;8.60;;;;;;;9.96;66.60;100852.53;10508496;28;20083;-73
2022/04/29 23:00:44;;;;;;;10.02;9.02;;;;;;;9.86;66.73;100851.81;10491093;28;20106;-73
2022/04/29 23:05:46;;;;;;;8.82;8.10;;;;;;;9.86;67.07;100838.69;10508252;28;20127;-73
2022/04/29 23:10:48;;;;;;;9.40;8.60;;;;;;;9.93;66.52;100839.47;10506689;28;20146;-74
2022/04/29 23:15:49;;;;;;;10.80;9.70;;;;;;;9.83;66.62;100834.38;10507563;28;20401;-73
2022/04/29 23:20:51;;;;;;;10.68;9.65;;;;;;;9.53;66.84;100837.47;10508062;28;20126;-73
2022/04/29 23:25:59;;;;;;;9.95;9.05;;;;;;;9.32;67.81;100830.75;10489446;28;20045;-73
2022/04/29 23:31:01;;;;;;;12.23;9.85;;;;;;;9.37;67.00;100833.31;10489567;28;20053;-73
2022/04/29 23:36:03;;;;;;;10.85;9.75;;;;;;;9.33;68.48;100832.47;10506028;28;20047;-73
2022/04/29 23:41:04;;;;;;;11.55;10.48;;;;;;;9.24;68.84;100832.63;10506155;28;20048;-73
2022/04/29 23:46:07;;;;;;;13.27;9.93;;;;;;;9.19;68.52;100823.94;10506301;28;20059;-73
2022/04/29 23:51:10;;;;;;;12.30;11.30;;;;;;;9.34;69.04;100827.22;10504900;28;20052;-73
2022/04/29 23:56:12;;;;;;;11.70;10.65;;;;;;;9.33;69.43;100822.00;10507466;28;20048;-74
